sensor_id;sensor_type;location;lat;lon;timestamp;temperature;humidity
39525;DHT22;25203;50.754;6.978;2023-04-09T00:01:32;6.60;99.90
39525;DHT22;25203;50.754;6.978;2023-04-09T00:03:33;6.60;99.90
39525;DHT22;25203;50.754;6.978;2023-04-09T00:05:38;6.50;99.90
39525;DHT22;25203;50.754;6.978;2023-04-09T00:07:39;6.50;99.90
39525;DHT22;25203;50.754;6.978;2023-04-09T00:09:40;6.50;99.90
39525;DHT22;25203;50.754;6.978;2023-04-09T00:11:40;6.50;99.90
39525;DHT22;25203;50.754;6.978;2023-04-09T00:13:41;6.50;99.90
39525;DHT22;25203;50.754;6.978;2023-04-09T00:15:41;6.50;99.90
39525;DHT22;25203;50.754;6.978;2023-04-09T00:17:42;6.50;99.90
39525;DHT22;25203;50.754;6.978;2023-04-09T00:19:43;6.50;99.90
39525;DHT22;25203;50.754;6.978;2023-04-09T00:21:43;6.50;99.90
39525;DHT22;25203;50.754;6.978;2023-04-09T00:23:44;6.50;99.90
39525;DHT22;25203;50.754;6.978;2023-04-09T00:25:44;6.50;99.90
39525;DHT22;25203;50.754;6.978;2023-04-09T00:27:45;6.50;99.90
39525;DHT22;25203;50.754;6.978;2023-04-09T00:29:46;6.50;99.90
39525;DHT22;25203;50.754;6.978;2023-04-09T00:31:46;6.50;99.90
39525;DHT22;25203;50.754;6.978;2023-04-09T00:33:47;6.50;99.90
39525;DHT22;25203;50.754;6.978;2023-04-09T00:35:48;6.50;99.90
39525;DHT22;25203;50.754;6.978;2023-04-09T00:37:49;6.50;99.90
39525;DHT22;25203;50.754;6.978;2023-04-09T00:39:49;6.50;99.90
39525;DHT22;25203;50.754;6.978;2023-04-09T00:41:58;6.40;99.90
39525;DHT22;25203;50.754;6.978;2023-04-09T00:44:01;6.30;99.90
39525;DHT22;25203;50.754;6.978;2023-04-09T00:46:03;6.30;99.90
39525;DHT22;25203;50.754;6.978;2023-04-09T00:48:04;6.30;99.90
39525;DHT22;25203;50.754;6.978;2023-04-09T00:50:05;6.20;99.90
39525;DHT22;25203;50.754;6.978;2023-04-09T00:52:06;6.20;99.90
39525;DHT22;25203;50.754;6.978;2023-04-09T00:54:07;6.20;99.90
39525;DHT22;25203;50.754;6.978;2023-04-09T00:56:07;6.20;99.90
39525;DHT22;25203;50.754;6.978;2023-04-09T00:58:10;6.20;99.90
39525;DHT22;25203;50.754;6.978;2023-04-09T01:00:11;6.10;99.90
39525;DHT22;25203;50.754;6.978;2023-04-09T01:02:12;6.20;99.90
39525;DHT22;25203;50.754;6.978;2023-04-09T01:04:13;6.30;99.90
39525;DHT22;25203;50.754;6.978;2023-04-09T01:09:00;6.30;99.90
39525;DHT22;25203;50.754;6.978;2023-04-09T01:13:48;6.40;99.90
39525;DHT22;25203;50.754;6.978;2023-04-09T01:15:54;6.40;99.90
39525;DHT22;25203;50.754;6.978;2023-04-09T01:18:05;6.40;99.90
39525;DHT22;25203;50.754;6.978;2023-04-09T01:20:25;6.40;99.90
39525;DHT22;25203;50.754;6.978;2023-04-09T01:23:00;6.40;99.90
39525;DHT22;25203;50.754;6.978;2023-04-09T01:30:17;6.20;99.90
39525;DHT22;25203;50.754;6.978;2023-04-09T01:32:18;6.20;99.90
39525;DHT22;25203;50.754;6.978;2023-04-09T01:34:20;6.20;99.90
39525;DHT22;25203;50.754;6.978;2023-04-09T01:36:23;6.20;99.90
39525;DHT22;25203;50.754;6.978;2023-04-09T01:38:26;6.20;99.90
39525;DHT22;25203;50.754;6.978;2023-04-09T01:40:27;6.20;99.90
39525;DHT22;25203;50.754;6.978;2023-04-09T01:42:28;6.20;99.90
39525;DHT22;25203;50.754;6.978;2023-04-09T01:44:29;6.10;99.90
39525;DHT22;25203;50.754;6.978;2023-04-09T01:46:31;6.10;99.90
39525;DHT22;25203;50.754;6.978;2023-04-09T01:48:33;6.00;99.90
39525;DHT22;25203;50.754;6.978;2023-04-09T01:50:34;6.00;99.90
39525;DHT22;25203;50.754;6.978;2023-04-09T01:52:35;6.10;99.90
39525;DHT22;25203;50.754;6.978;2023-04-09T01:54:36;6.10;99.90
39525;DHT22;25203;50.754;6.978;2023-04-09T01:58:41;6.20;99.90
39525;DHT22;25203;50.754;6.978;2023-04-09T02:00:46;6.30;99.90
39525;DHT22;25203;50.754;6.978;2023-04-09T02:03:25;6.30;99.90
39525;DHT22;25203;50.754;6.978;2023-04-09T02:05:35;6.30;99.90
39525;DHT22;25203;50.754;6.978;2023-04-09T02:07:50;6.30;99.90
39525;DHT22;25203;50.754;6.978;2023-04-09T02:09:52;6.30;99.90
39525;DHT22;25203;50.754;6.978;2023-04-09T02:12:00;6.30;99.90
39525;DHT22;25203;50.754;6.978;2023-04-09T02:14:02;6.30;99.90
39525;DHT22;25203;50.754;6.978;2023-04-09T02:16:03;6.30;99.90
39525;DHT22;25203;50.754;6.978;2023-04-09T02:18:22;6.30;99.90
39525;DHT22;25203;50.754;6.978;2023-04-09T02:20:23;6.30;99.90
39525;DHT22;25203;50.754;6.978;2023-04-09T02:22:24;6.20;99.90
39525;DHT22;25203;50.754;6.978;2023-04-09T02:24:24;6.20;99.90
39525;DHT22;25203;50.754;6.978;2023-04-09T02:26:25;6.10;99.90
39525;DHT22;25203;50.754;6.978;2023-04-09T02:28:25;6.00;99.90
39525;DHT22;25203;50.754;6.978;2023-04-09T02:30:26;5.90;99.90
39525;DHT22;25203;50.754;6.978;2023-04-09T02:32:27;5.90;99.90
39525;DHT22;25203;50.754;6.978;2023-04-09T02:34:27;5.90;99.90
39525;DHT22;25203;50.754;6.978;2023-04-09T02:36:28;5.80;99.90
39525;DHT22;25203;50.754;6.978;2023-04-09T02:38:29;5.90;99.90
39525;DHT22;25203;50.754;6.978;2023-04-09T02:40:30;5.90;99.90
39525;DHT22;25203;50.754;6.978;2023-04-09T02:42:30;5.90;99.90
39525;DHT22;25203;50.754;6.978;2023-04-09T02:44:31;5.90;99.90
39525;DHT22;25203;50.754;6.978;2023-04-09T02:46:32;5.90;99.90
39525;DHT22;25203;50.754;6.978;2023-04-09T02:48:32;5.90;99.90
39525;DHT22;25203;50.754;6.978;2023-04-09T02:50:33;5.90;99.90
39525;DHT22;25203;50.754;6.978;2023-04-09T02:52:34;5.90;99.90
39525;DHT22;25203;50.754;6.978;2023-04-09T02:54:34;5.80;99.90
39525;DHT22;25203;50.754;6.978;2023-04-09T02:56:35;5.80;99.90
39525;DHT22;25203;50.754;6.978;2023-04-09T02:58:35;5.80;99.90
39525;DHT22;25203;50.754;6.978;2023-04-09T03:00:36;5.80;99.90
39525;DHT22;25203;50.754;6.978;2023-04-09T03:02:36;5.80;99.90
39525;DHT22;25203;50.754;6.978;2023-04-09T03:04:38;5.80;99.90
39525;DHT22;25203;50.754;6.978;2023-04-09T03:06:38;5.70;99.90
39525;DHT22;25203;50.754;6.978;2023-04-09T03:08:39;5.70;99.90
39525;DHT22;25203;50.754;6.978;2023-04-09T03:10:39;5.70;99.90
39525;DHT22;25203;50.754;6.978;2023-04-09T03:12:40;5.70;99.90
39525;DHT22;25203;50.754;6.978;2023-04-09T03:14:43;5.70;99.90
39525;DHT22;25203;50.754;6.978;2023-04-09T03:16:44;5.60;99.90
39525;DHT22;25203;50.754;6.978;2023-04-09T03:18:45;5.60;99.90
39525;DHT22;25203;50.754;6.978;2023-04-09T03:20:45;5.60;99.90
39525;DHT22;25203;50.754;6.978;2023-04-09T03:22:46;5.50;99.90
39525;DHT22;25203;50.754;6.978;2023-04-09T03:24:47;5.50;99.90
39525;DHT22;25203;50.754;6.978;2023-04-09T03:26:47;5.50;99.90
39525;DHT22;25203;50.754;6.978;2023-04-09T03:28:48;5.50;99.90
39525;DHT22;25203;50.754;6.978;2023-04-09T03:30:48;5.50;99.90
39525;DHT22;25203;50.754;6.978;2023-04-09T03:32:49;5.50;99.90
39525;DHT22;25203;50.754;6.978;2023-04-09T03:34:50;5.50;99.90
39525;DHT22;25203;50.754;6.978;2023-04-09T03:36:50;5.50;99.90
39525;DHT22;25203;50.754;6.978;2023-04-09T03:38:51;5.50;99.90
39525;DHT22;25203;50.754;6.978;2023-04-09T03:40:51;5.50;99.90
39525;DHT22;25203;50.754;6.978;2023-04-09T03:42:52;5.40;99.90
39525;DHT22;25203;50.754;6.978;2023-04-09T03:44:53;5.40;99.90
39525;DHT22;25203;50.754;6.978;2023-04-09T03:46:54;5.40;99.90
39525;DHT22;25203;50.754;6.978;2023-04-09T03:48:55;5.30;99.90
39525;DHT22;25203;50.754;6.978;2023-04-09T03:50:55;5.30;99.90
39525;DHT22;25203;50.754;6.978;2023-04-09T03:52:56;5.40;99.90
39525;DHT22;25203;50.754;6.978;2023-04-09T03:54:56;5.40;99.90
39525;DHT22;25203;50.754;6.978;2023-04-09T03:56:57;5.40;99.90
39525;DHT22;25203;50.754;6.978;2023-04-09T03:58:57;5.40;99.90
39525;DHT22;25203;50.754;6.978;2023-04-09T04:00:58;5.50;99.90
39525;DHT22;25203;50.754;6.978;2023-04-09T04:02:58;5.40;99.90
39525;DHT22;25203;50.754;6.978;2023-04-09T04:04:59;5.50;99.90
39525;DHT22;25203;50.754;6.978;2023-04-09T04:07:02;5.40;99.90
39525;DHT22;25203;50.754;6.978;2023-04-09T04:09:02;5.40;99.90
39525;DHT22;25203;50.754;6.978;2023-04-09T04:11:03;5.30;99.90
39525;DHT22;25203;50.754;6.978;2023-04-09T04:13:07;5.40;99.90
39525;DHT22;25203;50.754;6.978;2023-04-09T04:15:08;5.30;99.90
39525;DHT22;25203;50.754;6.978;2023-04-09T04:17:09;5.40;99.90
39525;DHT22;25203;50.754;6.978;2023-04-09T04:19:11;5.50;99.90
39525;DHT22;25203;50.754;6.978;2023-04-09T04:21:13;5.50;99.90
39525;DHT22;25203;50.754;6.978;2023-04-09T04:23:13;5.60;99.90
39525;DHT22;25203;50.754;6.978;2023-04-09T04:25:14;5.60;99.90
39525;DHT22;25203;50.754;6.978;2023-04-09T04:27:15;5.60;99.90
39525;DHT22;25203;50.754;6.978;2023-04-09T04:29:15;5.70;99.90
39525;DHT22;25203;50.754;6.978;2023-04-09T04:31:16;5.70;99.90
39525;DHT22;25203;50.754;6.978;2023-04-09T04:33:17;5.70;99.90
39525;DHT22;25203;50.754;6.978;2023-04-09T04:35:18;5.70;99.90
39525;DHT22;25203;50.754;6.978;2023-04-09T04:37:18;5.60;99.90
39525;DHT22;25203;50.754;6.978;2023-04-09T04:39:20;5.60;99.90
39525;DHT22;25203;50.754;6.978;2023-04-09T04:41:21;5.60;99.90
39525;DHT22;25203;50.754;6.978;2023-04-09T04:43:21;5.60;99.90
39525;DHT22;25203;50.754;6.978;2023-04-09T04:45:22;5.60;99.90
39525;DHT22;25203;50.754;6.978;2023-04-09T04:47:22;5.60;99.90
39525;DHT22;25203;50.754;6.978;2023-04-09T04:49:23;5.50;99.90
39525;DHT22;25203;50.754;6.978;2023-04-09T04:51:24;5.50;99.90
39525;DHT22;25203;50.754;6.978;2023-04-09T04:53:27;5.60;99.90
39525;DHT22;25203;50.754;6.978;2023-04-09T04:55:27;5.60;99.90
39525;DHT22;25203;50.754;6.978;2023-04-09T04:57:28;5.60;99.90
39525;DHT22;25203;50.754;6.978;2023-04-09T04:59:28;5.60;99.90
39525;DHT22;25203;50.754;6.978;2023-04-09T05:01:29;5.60;99.90
39525;DHT22;25203;50.754;6.978;2023-04-09T05:03:30;5.60;99.90
39525;DHT22;25203;50.754;6.978;2023-04-09T05:05:30;5.60;99.90
39525;DHT22;25203;50.754;6.978;2023-04-09T05:07:32;5.60;99.90
39525;DHT22;25203;50.754;6.978;2023-04-09T05:09:33;5.50;99.90
39525;DHT22;25203;50.754;6.978;2023-04-09T05:11:33;5.50;99.90
39525;DHT22;25203;50.754;6.978;2023-04-09T05:13:38;5.40;99.90
39525;DHT22;25203;50.754;6.978;2023-04-09T05:15:39;5.40;99.90
39525;DHT22;25203;50.754;6.978;2023-04-09T05:17:43;5.50;99.90
39525;DHT22;25203;50.754;6.978;2023-04-09T05:19:50;5.50;99.90
39525;DHT22;25203;50.754;6.978;2023-04-09T05:21:51;5.50;99.90
39525;DHT22;25203;50.754;6.978;2023-04-09T05:23:51;5.60;99.90
39525;DHT22;25203;50.754;6.978;2023-04-09T05:25:52;5.60;99.90
39525;DHT22;25203;50.754;6.978;2023-04-09T05:27:52;5.70;99.90
39525;DHT22;25203;50.754;6.978;2023-04-09T05:29:53;5.80;99.90
39525;DHT22;25203;50.754;6.978;2023-04-09T05:31:53;5.80;99.90
39525;DHT22;25203;50.754;6.978;2023-04-09T05:33:54;5.80;99.90
39525;DHT22;25203;50.754;6.978;2023-04-09T05:35:54;5.90;99.90
39525;DHT22;25203;50.754;6.978;2023-04-09T05:37:55;6.00;99.90
39525;DHT22;25203;50.754;6.978;2023-04-09T05:39:56;6.00;99.90
39525;DHT22;25203;50.754;6.978;2023-04-09T05:41:56;6.10;99.90
39525;DHT22;25203;50.754;6.978;2023-04-09T05:43:57;6.10;99.90
39525;DHT22;25203;50.754;6.978;2023-04-09T05:45:58;6.20;99.90
39525;DHT22;25203;50.754;6.978;2023-04-09T05:47:58;6.20;99.90
39525;DHT22;25203;50.754;6.978;2023-04-09T05:49:59;6.30;99.90
39525;DHT22;25203;50.754;6.978;2023-04-09T05:51:59;6.40;99.90
39525;DHT22;25203;50.754;6.978;2023-04-09T05:54:01;6.50;99.90
39525;DHT22;25203;50.754;6.978;2023-04-09T05:56:02;6.50;99.90
39525;DHT22;25203;50.754;6.978;2023-04-09T05:58:02;6.60;99.90
39525;DHT22;25203;50.754;6.978;2023-04-09T06:00:03;6.70;99.90
39525;DHT22;25203;50.754;6.978;2023-04-09T06:02:05;6.80;99.90
39525;DHT22;25203;50.754;6.978;2023-04-09T06:04:05;6.90;99.90
39525;DHT22;25203;50.754;6.978;2023-04-09T06:06:06;7.00;99.90
39525;DHT22;25203;50.754;6.978;2023-04-09T06:08:06;7.10;99.90
39525;DHT22;25203;50.754;6.978;2023-04-09T06:10:07;7.30;99.90
39525;DHT22;25203;50.754;6.978;2023-04-09T06:12:08;7.40;99.90
39525;DHT22;25203;50.754;6.978;2023-04-09T06:14:09;7.50;99.90
39525;DHT22;25203;50.754;6.978;2023-04-09T06:16:15;7.70;99.90
39525;DHT22;25203;50.754;6.978;2023-04-09T06:18:16;7.80;99.90
39525;DHT22;25203;50.754;6.978;2023-04-09T06:20:16;8.00;99.90
39525;DHT22;25203;50.754;6.978;2023-04-09T06:22:17;8.10;99.90
39525;DHT22;25203;50.754;6.978;2023-04-09T06:24:18;8.20;99.90
39525;DHT22;25203;50.754;6.978;2023-04-09T06:26:18;8.40;99.90
39525;DHT22;25203;50.754;6.978;2023-04-09T06:28:19;8.50;99.90
39525;DHT22;25203;50.754;6.978;2023-04-09T06:30:20;8.60;99.90
39525;DHT22;25203;50.754;6.978;2023-04-09T06:32:22;8.80;99.90
39525;DHT22;25203;50.754;6.978;2023-04-09T06:34:22;8.90;99.90
39525;DHT22;25203;50.754;6.978;2023-04-09T06:36:23;8.90;99.90
39525;DHT22;25203;50.754;6.978;2023-04-09T06:38:24;9.00;99.90
39525;DHT22;25203;50.754;6.978;2023-04-09T06:40:24;9.20;99.90
39525;DHT22;25203;50.754;6.978;2023-04-09T06:42:25;9.30;99.90
39525;DHT22;25203;50.754;6.978;2023-04-09T06:44:26;9.50;99.90
39525;DHT22;25203;50.754;6.978;2023-04-09T06:46:26;9.80;99.90
39525;DHT22;25203;50.754;6.978;2023-04-09T06:48:27;10.30;99.90
39525;DHT22;25203;50.754;6.978;2023-04-09T06:50:28;11.70;99.90
39525;DHT22;25203;50.754;6.978;2023-04-09T06:52:29;13.50;99.90
39525;DHT22;25203;50.754;6.978;2023-04-09T06:54:29;14.90;99.90
39525;DHT22;25203;50.754;6.978;2023-04-09T06:56:30;16.00;99.70
39525;DHT22;25203;50.754;6.978;2023-04-09T06:58:30;16.70;96.70
39525;DHT22;25203;50.754;6.978;2023-04-09T07:00:31;17.10;95.40
39525;DHT22;25203;50.754;6.978;2023-04-09T07:02:32;17.00;93.70
39525;DHT22;25203;50.754;6.978;2023-04-09T07:04:32;16.60;93.00
39525;DHT22;25203;50.754;6.978;2023-04-09T07:06:33;16.10;93.20
39525;DHT22;25203;50.754;6.978;2023-04-09T07:08:34;15.40;93.80
39525;DHT22;25203;50.754;6.978;2023-04-09T07:10:34;15.20;95.90
39525;DHT22;25203;50.754;6.978;2023-04-09T07:12:35;15.20;97.70
39525;DHT22;25203;50.754;6.978;2023-04-09T07:14:36;15.00;96.30
39525;DHT22;25203;50.754;6.978;2023-04-09T07:16:36;14.90;95.00
39525;DHT22;25203;50.754;6.978;2023-04-09T07:18:37;15.00;96.40
39525;DHT22;25203;50.754;6.978;2023-04-09T07:20:37;15.10;95.60
39525;DHT22;25203;50.754;6.978;2023-04-09T07:22:38;15.10;95.70
39525;DHT22;25203;50.754;6.978;2023-04-09T07:24:39;14.90;94.20
39525;DHT22;25203;50.754;6.978;2023-04-09T07:26:39;14.60;95.30
39525;DHT22;25203;50.754;6.978;2023-04-09T07:28:40;14.40;96.60
39525;DHT22;25203;50.754;6.978;2023-04-09T07:30:41;14.40;95.40
39525;DHT22;25203;50.754;6.978;2023-04-09T07:32:42;14.40;97.40
39525;DHT22;25203;50.754;6.978;2023-04-09T07:34:43;14.60;97.00
39525;DHT22;25203;50.754;6.978;2023-04-09T07:36:44;14.70;96.70
39525;DHT22;25203;50.754;6.978;2023-04-09T07:38:45;14.90;97.40
39525;DHT22;25203;50.754;6.978;2023-04-09T07:40:45;15.30;97.90
39525;DHT22;25203;50.754;6.978;2023-04-09T07:42:46;15.60;96.40
39525;DHT22;25203;50.754;6.978;2023-04-09T07:44:49;16.10;96.20
39525;DHT22;25203;50.754;6.978;2023-04-09T07:46:49;16.60;94.60
39525;DHT22;25203;50.754;6.978;2023-04-09T07:48:50;17.50;93.70
39525;DHT22;25203;50.754;6.978;2023-04-09T07:50:50;18.30;91.30
39525;DHT22;25203;50.754;6.978;2023-04-09T07:52:52;19.20;87.40
39525;DHT22;25203;50.754;6.978;2023-04-09T07:54:52;20.50;82.00
39525;DHT22;25203;50.754;6.978;2023-04-09T07:56:53;22.00;75.20
39525;DHT22;25203;50.754;6.978;2023-04-09T07:58:53;23.50;68.60
39525;DHT22;25203;50.754;6.978;2023-04-09T08:00:54;24.60;64.20
39525;DHT22;25203;50.754;6.978;2023-04-09T08:02:54;25.80;60.00
39525;DHT22;25203;50.754;6.978;2023-04-09T08:04:56;26.90;57.30
39525;DHT22;25203;50.754;6.978;2023-04-09T08:06:57;27.80;55.80
39525;DHT22;25203;50.754;6.978;2023-04-09T08:08:57;28.10;52.90
39525;DHT22;25203;50.754;6.978;2023-04-09T08:10:58;28.90;52.00
39525;DHT22;25203;50.754;6.978;2023-04-09T08:12:59;29.40;50.30
39525;DHT22;25203;50.754;6.978;2023-04-09T08:14:59;29.80;48.00
39525;DHT22;25203;50.754;6.978;2023-04-09T08:17:03;28.20;46.10
39525;DHT22;25203;50.754;6.978;2023-04-09T08:19:04;26.80;46.80
39525;DHT22;25203;50.754;6.978;2023-04-09T08:21:04;26.80;48.40
39525;DHT22;25203;50.754;6.978;2023-04-09T08:23:05;27.00;47.60
39525;DHT22;25203;50.754;6.978;2023-04-09T08:25:06;26.40;48.30
39525;DHT22;25203;50.754;6.978;2023-04-09T08:27:07;26.00;49.50
39525;DHT22;25203;50.754;6.978;2023-04-09T08:29:08;26.50;48.70
39525;DHT22;25203;50.754;6.978;2023-04-09T08:31:09;27.20;49.40
39525;DHT22;25203;50.754;6.978;2023-04-09T08:33:10;28.10;48.90
39525;DHT22;25203;50.754;6.978;2023-04-09T08:35:10;28.70;47.80
39525;DHT22;25203;50.754;6.978;2023-04-09T08:37:12;29.60;47.70
39525;DHT22;25203;50.754;6.978;2023-04-09T08:39:14;30.00;47.30
39525;DHT22;25203;50.754;6.978;2023-04-09T08:41:24;30.70;46.00
39525;DHT22;25203;50.754;6.978;2023-04-09T08:43:26;29.90;43.80
39525;DHT22;25203;50.754;6.978;2023-04-09T08:45:27;29.20;44.40
39525;DHT22;25203;50.754;6.978;2023-04-09T08:47:28;29.10;44.60
39525;DHT22;25203;50.754;6.978;2023-04-09T08:49:29;28.80;44.00
39525;DHT22;25203;50.754;6.978;2023-04-09T08:51:30;28.90;45.30
39525;DHT22;25203;50.754;6.978;2023-04-09T08:53:31;28.40;43.10
39525;DHT22;25203;50.754;6.978;2023-04-09T08:55:32;27.60;43.70
39525;DHT22;25203;50.754;6.978;2023-04-09T08:57:40;25.60;43.90
39525;DHT22;25203;50.754;6.978;2023-04-09T08:59:40;24.90;44.90
39525;DHT22;25203;50.754;6.978;2023-04-09T09:01:41;24.50;44.90
39525;DHT22;25203;50.754;6.978;2023-04-09T09:03:58;24.00;44.70
39525;DHT22;25203;50.754;6.978;2023-04-09T09:05:59;22.90;47.30
39525;DHT22;25203;50.754;6.978;2023-04-09T09:08:00;22.90;46.90
39525;DHT22;25203;50.754;6.978;2023-04-09T09:10:01;23.10;47.80
39525;DHT22;25203;50.754;6.978;2023-04-09T09:12:03;23.80;46.40
39525;DHT22;25203;50.754;6.978;2023-04-09T09:14:06;24.40;45.50
39525;DHT22;25203;50.754;6.978;2023-04-09T09:16:13;23.40;46.80
39525;DHT22;25203;50.754;6.978;2023-04-09T09:18:16;22.60;47.50
39525;DHT22;25203;50.754;6.978;2023-04-09T09:20:19;21.10;48.60
39525;DHT22;25203;50.754;6.978;2023-04-09T09:22:23;20.40;49.20
39525;DHT22;25203;50.754;6.978;2023-04-09T09:24:25;20.30;50.70
39525;DHT22;25203;50.754;6.978;2023-04-09T09:26:27;21.10;50.10
39525;DHT22;25203;50.754;6.978;2023-04-09T09:28:33;21.60;49.60
39525;DHT22;25203;50.754;6.978;2023-04-09T09:30:36;22.40;48.50
39525;DHT22;25203;50.754;6.978;2023-04-09T09:32:38;22.30;47.50
39525;DHT22;25203;50.754;6.978;2023-04-09T09:34:39;21.60;48.70
39525;DHT22;25203;50.754;6.978;2023-04-09T09:36:39;21.30;48.00
39525;DHT22;25203;50.754;6.978;2023-04-09T09:38:55;19.90;49.80
39525;DHT22;25203;50.754;6.978;2023-04-09T09:40:56;19.30;51.00
39525;DHT22;25203;50.754;6.978;2023-04-09T09:42:57;19.70;51.40
39525;DHT22;25203;50.754;6.978;2023-04-09T09:44:58;19.20;51.40
39525;DHT22;25203;50.754;6.978;2023-04-09T09:46:59;19.10;50.90
39525;DHT22;25203;50.754;6.978;2023-04-09T09:49:03;19.60;51.30
39525;DHT22;25203;50.754;6.978;2023-04-09T09:51:11;20.50;50.90
39525;DHT22;25203;50.754;6.978;2023-04-09T09:53:13;20.70;49.20
39525;DHT22;25203;50.754;6.978;2023-04-09T09:55:17;20.70;50.10
39525;DHT22;25203;50.754;6.978;2023-04-09T09:57:19;20.80;50.30
39525;DHT22;25203;50.754;6.978;2023-04-09T09:59:25;19.90;50.30
39525;DHT22;25203;50.754;6.978;2023-04-09T10:01:29;18.90;51.40
39525;DHT22;25203;50.754;6.978;2023-04-09T10:03:33;19.30;51.70
39525;DHT22;25203;50.754;6.978;2023-04-09T10:05:34;19.60;52.30
39525;DHT22;25203;50.754;6.978;2023-04-09T10:07:37;19.50;51.20
39525;DHT22;25203;50.754;6.978;2023-04-09T10:09:44;20.10;51.50
39525;DHT22;25203;50.754;6.978;2023-04-09T10:11:47;18.90;51.10
39525;DHT22;25203;50.754;6.978;2023-04-09T10:13:58;18.10;53.80
39525;DHT22;25203;50.754;6.978;2023-04-09T10:15:59;18.00;53.70
39525;DHT22;25203;50.754;6.978;2023-04-09T10:18:00;17.30;54.60
39525;DHT22;25203;50.754;6.978;2023-04-09T10:20:11;16.20;55.80
39525;DHT22;25203;50.754;6.978;2023-04-09T10:22:17;15.70;57.50
39525;DHT22;25203;50.754;6.978;2023-04-09T10:24:21;15.90;57.70
39525;DHT22;25203;50.754;6.978;2023-04-09T10:26:24;15.70;56.30
39525;DHT22;25203;50.754;6.978;2023-04-09T10:28:30;15.80;57.10
39525;DHT22;25203;50.754;6.978;2023-04-09T10:30:34;16.50;57.50
39525;DHT22;25203;50.754;6.978;2023-04-09T10:32:35;16.70;57.10
39525;DHT22;25203;50.754;6.978;2023-04-09T10:34:41;17.20;56.50
39525;DHT22;25203;50.754;6.978;2023-04-09T10:36:44;17.90;54.90
39525;DHT22;25203;50.754;6.978;2023-04-09T10:38:45;17.90;55.90
39525;DHT22;25203;50.754;6.978;2023-04-09T10:40:47;17.80;54.30
39525;DHT22;25203;50.754;6.978;2023-04-09T10:42:49;17.20;56.10
39525;DHT22;25203;50.754;6.978;2023-04-09T10:45:10;16.30;56.60
39525;DHT22;25203;50.754;6.978;2023-04-09T10:47:14;15.50;58.50
39525;DHT22;25203;50.754;6.978;2023-04-09T10:49:41;15.00;60.10
39525;DHT22;25203;50.754;6.978;2023-04-09T10:52:08;15.70;60.60
39525;DHT22;25203;50.754;6.978;2023-04-09T10:56:32;18.20;55.20
39525;DHT22;25203;50.754;6.978;2023-04-09T10:58:33;17.90;55.50
39525;DHT22;25203;50.754;6.978;2023-04-09T11:00:38;17.00;56.50
39525;DHT22;25203;50.754;6.978;2023-04-09T11:07:10;16.50;57.80
39525;DHT22;25203;50.754;6.978;2023-04-09T11:09:11;16.20;57.60
39525;DHT22;25203;50.754;6.978;2023-04-09T11:11:11;16.50;58.30
39525;DHT22;25203;50.754;6.978;2023-04-09T11:13:13;17.50;56.70
39525;DHT22;25203;50.754;6.978;2023-04-09T11:15:16;17.90;54.00
39525;DHT22;25203;50.754;6.978;2023-04-09T11:17:17;17.70;56.00
39525;DHT22;25203;50.754;6.978;2023-04-09T11:19:22;17.10;55.90
39525;DHT22;25203;50.754;6.978;2023-04-09T11:21:26;16.50;57.60
39525;DHT22;25203;50.754;6.978;2023-04-09T11:23:28;16.00;58.10
39525;DHT22;25203;50.754;6.978;2023-04-09T11:25:30;15.40;59.30
39525;DHT22;25203;50.754;6.978;2023-04-09T11:27:36;15.00;60.30
39525;DHT22;25203;50.754;6.978;2023-04-09T11:29:37;14.80;60.30
39525;DHT22;25203;50.754;6.978;2023-04-09T11:31:38;15.10;60.40
39525;DHT22;25203;50.754;6.978;2023-04-09T11:33:38;16.10;58.70
39525;DHT22;25203;50.754;6.978;2023-04-09T11:35:39;17.50;58.20
39525;DHT22;25203;50.754;6.978;2023-04-09T11:37:41;18.50;55.50
39525;DHT22;25203;50.754;6.978;2023-04-09T11:39:43;18.70;54.50
39525;DHT22;25203;50.754;6.978;2023-04-09T11:41:44;18.40;56.10
39525;DHT22;25203;50.754;6.978;2023-04-09T11:43:45;18.00;55.90
39525;DHT22;25203;50.754;6.978;2023-04-09T11:45:45;17.60;57.20
39525;DHT22;25203;50.754;6.978;2023-04-09T11:47:49;17.70;56.40
39525;DHT22;25203;50.754;6.978;2023-04-09T11:49:50;18.00;56.30
39525;DHT22;25203;50.754;6.978;2023-04-09T11:51:51;18.50;55.10
39525;DHT22;25203;50.754;6.978;2023-04-09T11:53:53;18.20;53.70
39525;DHT22;25203;50.754;6.978;2023-04-09T11:55:53;17.80;54.50
39525;DHT22;25203;50.754;6.978;2023-04-09T11:57:59;17.60;57.50
39525;DHT22;25203;50.754;6.978;2023-04-09T12:00:08;16.80;57.70
39525;DHT22;25203;50.754;6.978;2023-04-09T12:02:08;16.10;57.60
39525;DHT22;25203;50.754;6.978;2023-04-09T12:04:19;15.40;59.20
39525;DHT22;25203;50.754;6.978;2023-04-09T12:06:21;14.90;60.10
39525;DHT22;25203;50.754;6.978;2023-04-09T12:08:26;14.60;61.50
39525;DHT22;25203;50.754;6.978;2023-04-09T12:10:28;14.40;62.80
39525;DHT22;25203;50.754;6.978;2023-04-09T12:12:29;14.40;62.30
39525;DHT22;25203;50.754;6.978;2023-04-09T12:14:29;14.30;61.80
39525;DHT22;25203;50.754;6.978;2023-04-09T12:16:31;14.40;62.70
39525;DHT22;25203;50.754;6.978;2023-04-09T12:18:35;14.90;63.20
39525;DHT22;25203;50.754;6.978;2023-04-09T12:20:38;15.70;63.20
39525;DHT22;25203;50.754;6.978;2023-04-09T12:22:39;16.40;60.30
39525;DHT22;25203;50.754;6.978;2023-04-09T12:24:40;16.80;58.90
39525;DHT22;25203;50.754;6.978;2023-04-09T12:26:41;17.20;58.90
39525;DHT22;25203;50.754;6.978;2023-04-09T12:28:42;17.00;55.50
39525;DHT22;25203;50.754;6.978;2023-04-09T12:30:43;16.40;57.10
39525;DHT22;25203;50.754;6.978;2023-04-09T12:32:44;15.80;60.40
39525;DHT22;25203;50.754;6.978;2023-04-09T12:34:45;15.30;60.60
39525;DHT22;25203;50.754;6.978;2023-04-09T12:36:46;15.20;59.90
39525;DHT22;25203;50.754;6.978;2023-04-09T12:38:47;15.30;60.40
39525;DHT22;25203;50.754;6.978;2023-04-09T12:40:48;15.40;60.30
39525;DHT22;25203;50.754;6.978;2023-04-09T12:42:48;15.20;59.70
39525;DHT22;25203;50.754;6.978;2023-04-09T12:44:49;15.10;59.10
39525;DHT22;25203;50.754;6.978;2023-04-09T12:46:50;15.20;60.70
39525;DHT22;25203;50.754;6.978;2023-04-09T12:48:50;15.40;59.50
39525;DHT22;25203;50.754;6.978;2023-04-09T12:50:51;15.70;60.00
39525;DHT22;25203;50.754;6.978;2023-04-09T12:52:51;15.80;61.10
39525;DHT22;25203;50.754;6.978;2023-04-09T12:54:52;15.90;59.40
39525;DHT22;25203;50.754;6.978;2023-04-09T12:56:53;16.00;59.00
39525;DHT22;25203;50.754;6.978;2023-04-09T12:58:53;15.60;59.00
39525;DHT22;25203;50.754;6.978;2023-04-09T13:00:54;15.00;60.70
39525;DHT22;25203;50.754;6.978;2023-04-09T13:02:56;14.60;62.40
39525;DHT22;25203;50.754;6.978;2023-04-09T13:04:56;14.40;61.90
39525;DHT22;25203;50.754;6.978;2023-04-09T13:06:57;14.40;64.20
39525;DHT22;25203;50.754;6.978;2023-04-09T13:08:58;14.40;61.00
39525;DHT22;25203;50.754;6.978;2023-04-09T13:10:58;14.30;62.30
39525;DHT22;25203;50.754;6.978;2023-04-09T13:12:59;14.30;61.80
39525;DHT22;25203;50.754;6.978;2023-04-09T13:15:00;14.40;62.80
39525;DHT22;25203;50.754;6.978;2023-04-09T13:17:00;14.40;63.20